Terminal Aerodrome Forecast
Issued by NWS

Home | Current Version | Previous Version | Text Only | Print | Product List | Glossary On
Versions: 1 2 3 4 5 6 7 8 9 10 11 12 13 14 15 16
000
FTUS41 KRNK 241139
TAFLWB
TAF
KLWB 241139Z 2412/2512 00000KT 1/4SM FG VV001
      TEMPO 2412/2413 0SM FG
     FM241330 19004KT P6SM SCT030 BKN250
     FM241800 22005KT P6SM BKN050 BKN100
     FM250100 00000KT P6SM BKN045 BKN110 OVC250
      TEMPO 2508/2512 3SM BR=

USA.gov is the U.S. government's official web portal to all federal, state and local government web resources and services.